Pagrindinis puslapis
METAR-TAF:

METAR-TAF

Oro uostai :

Kutaisis, Gruzija

platuma: 42-10-35N, ilguma: 042-28-57E, Aukštis: 68 m

Dabartinis oras

Ataskaita buvo paskelbta 22 minutes, ne 23:00 UTC
Vėjas 11 kt iš Rytų/Šiaurės Rytų
Temperatūra 13°C
Drėgmė 72%
Slėgis 1017 hPa
Matomumas 10 km arba daugiau
Išsisklaidę debesys ne aukštis 2600 ft
Apsiniaukę ne aukštis 4900 ft

METAR: UGKO 052300Z 07011KT 9999 SCT026 OVC049 13/08 Q1017 NOSIG

Laikas: 03:22 (23:22 UTC)

Prognozė

Ataskaita buvo paskelbta 6 valandos ir 22 minutes, ne 17:00 UTC
Prognozė galioja nuo 05 metu 18 UTC su 06 metu 18 UTC
Vėjas 6 kt iš Vakarų/Pietvakarių
Matomumas 10 km arba daugiau
Išsisklaidę debesys ne aukštis 2500 ft
Apsiniaukę ne aukštis 5000 ft
Laikinai
nuo 05 metu 22 UTC su 06 metu 06 UTC
Matomumas: 3000 m
Su prošvaistėmis ne aukštis 1000 ft
lietus, rūkana
Laikinai
nuo 06 metu 08 UTC su 06 metu 12 UTC
Vėjas 16 kt iš Vakarų/Pietvakarių

TAF: UGKO 051700Z 0518/0618 25006KT 9999 SCT025 OVC050 TX14/0518Z TN09/0603Z TEMPO 0522/0606 3000 RA BR BKN010 TEMPO 0608/0612 25016KT

Orai ataskaitas ir orų prognozės (METAR, TAF).

turimą stotys yra geltonos ir raudonos taškus žemėlapyje.

Perkelti pele per norėdami pamatyti stoties vardą.

Tada spustelėkite, norėdami matyti oro stebėjimo ir prognozės.

Norėdami pakeisti žemėlapį: spustelėkite ant žalios mygtukų su juodo kryžiaus žemyn,; žalią mygtuką su brūkšneliu, jei norite nutolinti; arba žalių rodyklių gretimoms žemėlapius.


METAR-TAF: